Latest Weather Observations for Miles

IDQ60801

Issued at 6:35 pm EST Wednesday 26 November 2014 (issued every 30 minutes, with the page automatically refreshed every 10 minutes)

About weather observations | Map of weather stations | Latest weather observations for QLD | Other Formats
Station Details ID: 042112 Name: MILES CONSTANCE STREET Lat: -26.66 Lon: 150.18 Height: 304.8 m
Data from the previous 72 hours. | See also: Recent months at Miles
Date/Time
EST
Temp
°C
App
Temp
°C
Dew
Point
Rel
Hum
%
Delta-T
°C
Wind Press
QNH
hPa
Press
MSL
hPa
Rain
since 9 am
mm
Dir
 
Spd
km/h
Gust
km/h
Spd
kts
Gust
kts
26/06:30pm 22.8 24.8 17.9 74 3.1 SSE 4 7 2 4 1016.7 - 11.0
26/06:00pm 22.7 24.2 17.6 73 3.2 NNW 6 13 3 7 1016.8 1015.3 11.0
26/05:30pm 23.3 24.1 17.2 68 3.8 ENE 9 13 5 7 1016.1 - 11.0
26/05:00pm 23.1 24.0 17.5 70 3.5 ENE 9 15 5 8 1015.9 - 11.0
26/04:30pm 23.8 24.4 18.5 72 3.4 E 13 24 7 13 1015.8 - 11.0
26/04:00pm 24.6 23.9 17.3 64 4.6 E 17 28 9 15 1015.5 - 11.0
26/03:30pm 24.5 25.2 17.9 66 4.2 S 11 20 6 11 1015.0 - 11.0
26/03:00pm 23.0 24.2 19.9 83 2.0 S 13 20 7 11 1014.9 1013.3 11.0
26/02:30pm 21.5 21.4 19.5 88 1.3 SSW 19 32 10 17 1015.2 - 11.0
26/02:00pm 22.5 22.0 19.1 81 2.2 WSW 20 33 11 18 1015.8 - 9.0
26/01:30pm 22.6 20.2 19.2 81 2.2 SSW 30 48 16 26 1015.1 - 4.8
26/01:25pm 23.3 21.3 19.1 77 2.7 SSW 28 48 15 26 1014.7 - 3.6
26/01:21pm 26.2 24.5 18.1 61 5.2 SW 24 41 13 22 1014.8 - 0.6
26/01:00pm 31.4 32.0 15.2 37 10.1 NNW 6 13 3 7 1014.3 - 0.0
26/12:30pm 32.1 32.0 14.9 35 10.7 N 9 17 5 9 1014.6 - 0.0
26/12:00pm 32.2 31.6 14.6 34 10.9 NE 11 20 6 11 1015.2 1013.7 0.0
26/11:30am 32.0 32.6 15.8 37 10.2 NNW 7 13 4 7 1015.9 - 0.0
26/11:00am 31.6 30.9 15.3 37 10.2 NNE 13 20 7 11 1016.1 - 0.0
26/10:30am 31.4 30.9 15.8 39 9.8 N 13 24 7 13 1016.5 - 0.0
26/10:00am 30.6 29.9 16.4 42 9.0 NE 15 26 8 14 1016.7 - 0.0
26/09:30am 29.6 29.4 16.8 46 8.1 N 13 26 7 14 1016.8 - 0.0
26/09:00am 28.0 28.1 17.5 52 6.7 NNE 13 19 7 10 1016.9 1015.4 0.0
26/08:30am 28.3 28.6 17.9 53 6.7 NNE 13 20 7 11 1017.0 - 0.0
26/08:00am 26.8 28.1 18.4 60 5.4 NNE 9 19 5 10 1017.2 - 0.0
26/07:30am 27.0 27.6 18.5 59 5.5 NNE 13 20 7 11 1017.0 - 0.0
26/07:00am 26.4 27.1 18.8 63 4.9 NNE 13 20 7 11 1016.8 - 0.0
26/06:30am 25.0 25.0 19.0 69 3.9 NNE 17 24 9 13 1016.5 - 0.0
26/06:00am 24.3 25.3 19.4 74 3.2 NNE 13 22 7 12 1016.1 1014.6 0.0
26/05:30am 23.9 25.5 19.1 74 3.1 NNE 9 15 5 8 1016.1 - 0.0
26/05:00am 23.8 24.7 18.3 71 3.5 NNE 11 15 6 8 1015.7 - 0.0
26/04:30am 23.7 24.7 17.8 69 3.7 NE 9 13 5 7 1015.1 - 0.0
26/04:00am 23.9 25.2 17.5 67 4.0 NE 7 11 4 6 1014.8 - 0.0
26/03:30am 24.1 25.2 17.2 65 4.3 NE 7 9 4 5 1014.4 - 0.0
26/03:00am 24.5 25.6 17.2 63 4.6 NE 7 11 4 6 1014.2 1012.6 0.0
26/02:30am 24.7 25.9 17.4 64 4.6 ENE 7 13 4 7 1014.2 - 0.0
26/02:00am 25.1 25.9 17.3 62 4.9 E 9 17 5 9 1014.4 - 0.0
26/01:30am 25.2 25.7 17.4 62 4.9 E 11 17 6 9 1014.7 - 0.0
26/01:00am 25.3 25.0 17.4 61 5.0 E 15 28 8 15 1014.7 - 0.0
26/12:30am 25.6 26.1 17.4 60 5.2 ESE 11 20 6 11 1015.1 - 0.0
26/12:00am 25.6 25.3 17.4 60 5.2 ESE 15 20 8 11 1015.4 1013.9 0.0
 
Date/Time
EST
Temp
°C
App
Temp
°C
Dew
Point
Rel
Hum
%
Delta-T
°C
Wind Press
QNH
hPa
Press
MSL
hPa
Rain
since 9 am
mm
Dir
 
Spd
km/h
Gust
km/h
Spd
kts
Gust
kts
25/11:30pm 25.8 24.7 17.2 59 5.4 ESE 19 32 10 17 1015.6 - 0.0
25/11:00pm 25.9 24.4 16.8 57 5.7 SE 20 30 11 16 1016.1 - 0.0
25/10:30pm 26.7 25.0 14.7 47 7.3 SSE 17 28 9 15 1016.2 - 0.0
25/10:00pm 26.4 25.7 15.3 50 6.8 S 13 20 7 11 1016.3 - 0.0
25/09:30pm 26.4 25.8 15.7 51 6.6 S 13 20 7 11 1016.2 - 0.0
25/09:00pm 26.9 25.3 15.9 51 6.8 S 19 35 10 19 1016.1 1014.6 0.0
25/08:30pm 27.4 26.6 16.0 49 7.1 S 15 32 8 17 1015.7 - 0.0
25/08:00pm 27.9 25.5 15.4 46 7.7 S 22 37 12 20 1014.8 - 0.0
25/07:30pm 28.1 26.6 16.3 48 7.4 SSW 19 32 10 17 1014.5 - 0.0
25/07:00pm 28.3 26.3 16.4 48 7.5 SW 22 43 12 23 1014.3 - 0.0
25/06:30pm 30.4 27.8 14.9 39 9.6 SSW 22 37 12 20 1012.9 - 0.0
25/06:00pm 34.7 33.2 10.4 22 14.3 SSW 9 19 5 10 1011.9 1010.3 0.0
25/05:30pm 35.1 34.2 11.4 23 14.2 ESE 7 11 4 6 1011.2 - 0.0
25/05:00pm 35.6 34.2 10.9 22 14.7 SE 9 15 5 8 1010.9 - 0.0
25/04:30pm 35.5 34.5 11.0 22 14.6 SSW 7 11 4 6 1010.8 - 0.0
25/04:00pm 35.7 35.0 11.9 23 14.4 SSW 7 11 4 6 1011.1 - 0.0
25/03:30pm 35.8 34.8 11.0 22 14.8 S 7 11 4 6 1011.3 - 0.0
25/03:00pm 36.8 35.5 9.8 19 15.9 SSE 7 13 4 7 1011.7 1010.1 0.0
25/02:30pm 36.1 35.2 11.2 22 14.9 WNW 7 13 4 7 1011.8 - 0.0
25/02:00pm 36.3 35.2 10.8 21 15.2 NNE 7 17 4 9 1012.2 - 0.0
25/01:30pm 35.1 34.5 11.6 24 14.1 SW 6 15 3 8 1012.6 - 0.0
25/01:00pm 34.2 33.3 12.6 27 13.1 ENE 9 17 5 9 1013.1 - 0.0
25/12:30pm 34.6 33.1 13.0 27 13.2 ENE 13 22 7 12 1013.6 - 0.0
25/12:00pm 34.1 33.1 13.4 28 12.7 N 11 19 6 10 1014.2 1012.6 0.0
25/11:30am 33.0 32.6 15.1 34 11.2 N 11 20 6 11 1014.5 - 0.0
25/11:00am 31.9 31.3 15.7 37 10.2 N 13 20 7 11 1014.7 - 0.0
25/10:30am 31.5 30.4 15.3 37 10.1 NNE 15 22 8 12 1015.3 - 0.0
25/10:00am 29.8 29.7 16.1 43 8.6 NNW 11 22 6 12 1015.8 - 0.0
25/09:30am 29.6 29.5 16.1 44 8.5 NNW 11 20 6 11 1016.3 - 0.0
25/09:00am 28.1 27.4 16.5 49 7.3 N 15 24 8 13 1016.4 1014.9 0.0
25/08:30am 27.4 26.7 16.4 51 6.9 N 15 22 8 12 1016.8 - 0.0
25/08:00am 25.7 24.9 16.2 55 5.9 N 15 24 8 13 1016.8 - 0.0
25/07:30am 24.9 24.2 16.3 59 5.3 N 15 24 8 13 1017.0 - 0.0
25/07:00am 24.3 23.5 16.2 60 5.0 N 15 26 8 14 1016.8 - 0.0
25/06:30am 23.3 23.3 16.3 64 4.3 N 11 24 6 13 1016.5 - 0.0
25/06:00am 22.2 21.7 16.0 68 3.8 N 13 19 7 10 1016.0 1014.5 0.0
25/05:30am 21.4 21.5 15.6 69 3.5 N 9 17 5 9 1015.6 - 0.0
25/05:00am 21.5 21.2 15.5 68 3.6 N 11 17 6 9 1015.1 - 0.0
25/04:30am 21.7 21.5 15.6 68 3.7 N 11 19 6 10 1014.8 - 0.0
25/04:00am 22.0 21.9 16.1 69 3.6 N 11 15 6 8 1014.8 - 0.0
25/03:30am 22.3 22.4 16.4 69 3.6 NNE 11 17 6 9 1014.9 - 0.0
25/03:00am 22.5 24.1 16.9 70 3.5 N 4 7 2 4 1015.1 1013.6 0.0
25/02:30am 22.9 23.5 16.8 68 3.8 NNW 9 17 5 9 1014.7 - 0.0
25/02:00am 23.5 22.4 16.4 64 4.4 N 17 28 9 15 1013.7 - 0.0
25/01:30am 24.0 22.9 16.4 62 4.7 N 17 26 9 14 1013.8 - 0.0
25/01:00am 24.6 23.4 16.2 59 5.2 N 17 24 9 13 1014.5 - 0.0
25/12:30am 25.3 24.0 15.7 55 5.9 N 17 28 9 15 1014.6 - 0.0
25/12:00am 26.2 24.6 14.9 49 6.9 N 17 24 9 13 1014.4 1012.8 0.0
 
Date/Time
EST
Temp
°C
App
Temp
°C
Dew
Point
Rel
Hum
%
Delta-T
°C
Wind Press
QNH
hPa
Press
MSL
hPa
Rain
since 9 am
mm
Dir
 
Spd
km/h
Gust
km/h
Spd
kts
Gust
kts
24/11:30pm 26.5 25.4 14.4 47 7.3 N 13 20 7 11 1014.4 - 0.0
24/11:00pm 26.5 25.7 13.0 43 8.0 N 9 15 5 8 1014.5 - 0.0
24/10:30pm 26.8 25.5 11.4 38 8.9 N 9 17 5 9 1014.5 - 0.0
24/10:00pm 25.9 25.2 11.9 41 8.1 NNE 7 9 4 5 1014.4 - 0.0
24/09:30pm 25.8 25.2 12.2 42 7.9 N 7 9 4 5 1014.2 - 0.0
24/09:00pm 25.7 25.3 12.3 43 7.8 N 6 7 3 4 1014.1 1012.5 0.0
24/08:30pm 26.2 27.1 12.8 43 7.9 CALM 0 0 0 0 1013.6 - 0.0
24/08:00pm 27.8 29.0 13.7 42 8.5 CALM 0 0 0 0 1013.2 - 0.0
24/07:30pm 29.6 29.7 12.7 35 10.1 NNE 4 6 2 3 1012.8 - 0.0
24/07:00pm 31.5 30.0 10.5 27 12.2 NNE 9 15 5 8 1012.5 - 0.0
24/06:30pm 32.4 29.8 9.4 24 13.2 N 13 20 7 11 1012.0 - 0.0
24/06:00pm 33.5 30.6 8.3 21 14.3 NNE 13 22 7 12 1011.7 1010.1 0.0
24/05:30pm 33.9 31.0 6.3 18 15.2 NNE 11 19 6 10 1011.4 - 0.0
24/05:00pm 34.4 30.9 7.3 18 15.2 NNE 15 22 8 12 1011.3 - 0.0
24/04:30pm 35.0 32.0 7.5 18 15.5 N 13 20 7 11 1011.4 - 0.0
24/04:00pm 35.7 32.3 7.7 18 15.9 N 15 26 8 14 1011.5 - 0.0
24/03:30pm 35.4 32.4 7.7 18 15.7 NNE 13 20 7 11 1011.7 - 0.0
24/03:00pm 36.0 32.0 6.7 16 16.4 NE 17 28 9 15 1012.1 1010.6 0.0
24/02:30pm 36.1 32.3 3.8 13 17.3 N 13 24 7 13 1012.6 - 0.0
24/02:00pm 35.4 31.0 4.7 15 16.6 N 17 28 9 15 1013.3 - 0.0
24/01:30pm 34.7 32.7 10.1 22 14.4 NE 11 20 6 11 1013.7 - 0.0
24/01:00pm 34.4 32.2 10.9 24 13.9 N 13 22 7 12 1014.4 - 0.0
24/12:30pm 33.2 30.7 11.0 25 13.1 NE 15 26 8 14 1015.0 - 0.0
24/12:00pm 32.2 29.9 10.3 26 12.7 NNE 13 22 7 12 1015.7 1014.2 0.0
24/11:30am 30.7 28.9 10.7 29 11.6 N 11 22 6 12 1016.3 - 0.0
24/11:00am 30.8 28.4 11.4 30 11.4 N 15 28 8 15 1016.9 - 0.0
24/10:30am 29.9 28.1 12.2 33 10.5 NNW 13 22 7 12 1017.4 - 0.0
24/10:00am 29.6 27.3 11.7 33 10.5 N 15 24 8 13 1017.8 - 0.0
24/09:30am 29.5 27.4 12.3 34 10.2 N 15 30 8 16 1018.2 - 0.0
24/09:00am 28.0 26.4 13.9 42 8.5 N 15 26 8 14 1018.5 1017.0 0.0
24/08:30am 27.4 26.2 15.0 46 7.6 N 15 24 8 13 1018.4 - 0.0
24/08:00am 25.2 23.0 15.0 53 6.2 N 20 30 11 16 1018.6 - 0.0
24/07:30am 24.3 22.9 16.6 62 4.8 N 19 26 10 14 1018.4 - 0.0
24/07:00am 23.7 22.4 16.8 65 4.3 NNE 19 28 10 15 1018.3 - 0.0
24/06:30am 22.6 21.5 16.4 68 3.8 N 17 24 9 13 1018.1 - 0.0
24/06:00am 22.1 20.6 16.2 69 3.6 NNE 19 28 10 15 1017.8 1016.2 0.0
24/05:30am 21.7 21.2 15.8 69 3.6 N 13 20 7 11 1017.6 - 0.0
24/05:00am 21.7 20.9 15.2 66 3.9 N 13 22 7 12 1017.1 - 0.0
24/04:30am 22.2 21.6 14.7 62 4.5 N 11 19 6 10 1016.9 - 0.0
24/04:00am 22.8 20.8 14.0 57 5.2 N 17 30 9 16 1016.7 - 0.0
24/03:30am 23.4 21.5 14.2 56 5.5 N 17 26 9 14 1016.2 - 0.0
24/03:00am 24.0 22.5 14.1 54 5.9 N 15 26 8 14 1016.2 1014.7 0.0
24/02:30am 24.5 23.0 14.3 53 6.1 N 15 22 8 12 1015.8 - 0.0
24/02:00am 25.1 23.5 14.9 53 6.2 N 17 28 9 15 1015.7 - 0.0
24/01:30am 25.7 24.5 15.0 51 6.5 N 15 28 8 15 1015.5 - 0.0
24/01:00am 26.3 26.0 15.4 51 6.7 N 11 15 6 8 1015.6 - 0.0
24/12:30am 27.2 25.6 15.1 47 7.4 N 17 26 9 14 1015.5 - 0.0
24/12:00am 27.9 27.3 14.6 44 8.1 N 11 17 6 9 1015.6 1014.1 0.0
 
Date/Time
EST
Temp
°C
App
Temp
°C
Dew
Point
Rel
Hum
%
Delta-T
°C
Wind Press
QNH
hPa
Press
MSL
hPa
Rain
since 9 am
mm
Dir
 
Spd
km/h
Gust
km/h
Spd
kts
Gust
kts
23/11:30pm 28.7 27.2 14.2 41 8.8 N 15 20 8 11 1015.5 - 0.0
23/11:00pm 29.4 27.7 13.7 38 9.5 N 15 20 8 11 1015.4 - 0.0
23/10:30pm 29.9 28.7 14.0 37 9.7 NNE 13 20 7 11 1015.3 - 0.0
23/10:00pm 30.6 29.2 13.4 35 10.4 N 13 22 7 12 1015.3 - 0.0
23/09:30pm 31.1 29.6 14.1 35 10.4 N 15 22 8 12 1015.2 - 0.0
23/09:00pm 31.8 30.2 13.8 33 11.0 NNE 15 24 8 13 1015.0 1013.4 0.0
23/08:30pm 32.5 31.5 14.6 34 11.1 NNE 13 20 7 11 1014.7 - 0.0
23/08:00pm 32.8 32.1 14.4 33 11.4 N 11 17 6 9 1014.2 - 0.0
23/07:30pm 33.5 32.8 14.3 31 11.9 N 11 17 6 9 1014.0 - 0.0
23/07:00pm 34.1 33.1 14.5 30 12.2 N 13 24 7 13 1013.5 - 0.0

Other Formats:

Comma delimited format used in spreadsheet applications
http://www.bom.gov.au/fwo/IDQ60801/IDQ60801.95529.axf

JavaScript Object Notation format (JSON) in row-major order
http://www.bom.gov.au/fwo/IDQ60801/IDQ60801.95529.json